createdAt,value
2019-02-15T00:02:17.328Z,0.50
2019-02-15T00:04:45.961Z,0.40
2019-02-15T00:07:14.545Z,0.40
2019-02-15T00:09:43.105Z,0.40
2019-02-15T00:12:11.858Z,0.40
2019-02-15T00:14:48.453Z,0.60
2019-02-15T00:17:35.286Z,0.50
2019-02-15T00:20:06.710Z,0.40
2019-02-15T00:22:35.341Z,0.30
2019-02-15T00:25:04.301Z,0.40
2019-02-15T00:27:32.857Z,0.40
2019-02-15T00:30:01.446Z,0.40
2019-02-15T00:32:30.028Z,0.40
2019-02-15T00:34:58.706Z,0.40
2019-02-15T00:37:27.318Z,0.40
2019-02-15T00:39:55.878Z,0.40
2019-02-15T00:42:24.555Z,0.30
2019-02-15T00:44:53.174Z,0.30
2019-02-15T00:47:41.554Z,0.50
2019-02-15T00:50:11.822Z,0.40
2019-02-15T00:53:00.463Z,0.30
2019-02-15T00:55:36.438Z,0.20
2019-02-15T00:58:15.863Z,0.30
2019-02-15T01:00:51.789Z,0.20
2019-02-15T01:03:31.435Z,0.30
2019-02-15T01:06:07.751Z,0.20
2019-02-15T01:08:40.969Z,0.20
2019-02-15T01:11:11.170Z,0.10
2019-02-15T01:13:39.797Z,0.10
2019-02-15T01:16:08.385Z,0.10
2019-02-15T01:18:36.942Z,0.10
2019-02-15T01:21:05.606Z,0.00
2019-02-15T01:23:35.701Z,0.10
2019-02-15T01:26:05.970Z,0.10
2019-02-15T01:28:36.669Z,0.00
2019-02-15T01:31:06.878Z,0.00
2019-02-15T01:33:54.048Z,0.00
2019-02-15T01:36:30.222Z,0.10
2019-02-15T01:39:06.118Z,0.00
2019-02-15T01:41:39.108Z,-0.10
2019-02-15T01:44:09.418Z,-0.20
2019-02-15T01:46:39.768Z,-0.20
2019-02-15T01:49:08.369Z,-0.30
2019-02-15T01:51:37.000Z,-0.30
2019-02-15T01:54:05.574Z,-0.30
2019-02-15T01:56:35.254Z,-0.30
2019-02-15T01:59:03.949Z,-0.20
2019-02-15T02:01:32.767Z,-0.30
2019-02-15T02:04:01.398Z,-0.30
2019-02-15T02:06:30.026Z,-0.30
2019-02-15T02:08:58.613Z,-0.20
2019-02-15T02:11:27.254Z,-0.10
2019-02-15T02:13:55.858Z,0.00
2019-02-15T02:16:24.418Z,0.00
2019-02-15T02:18:52.977Z,-0.10
2019-02-15T02:21:21.718Z,-0.20
2019-02-15T02:23:50.281Z,-0.20
2019-02-15T02:26:19.027Z,-0.30
2019-02-15T02:28:47.669Z,-0.30
2019-02-15T02:31:16.373Z,-0.30
2019-02-15T02:33:44.966Z,-0.40
2019-02-15T02:36:13.588Z,-0.40
2019-02-15T02:38:42.175Z,-0.40
2019-02-15T02:41:10.729Z,-0.40
2019-02-15T02:43:39.301Z,-0.50
2019-02-15T02:46:07.888Z,-0.50
2019-02-15T02:48:36.517Z,-0.50
2019-02-15T02:51:05.495Z,-0.50
2019-02-15T02:53:34.054Z,-0.50
2019-02-15T02:56:02.607Z,-0.40
2019-02-15T02:58:31.198Z,-0.50
2019-02-15T03:00:59.844Z,-0.60
2019-02-15T03:03:28.590Z,-0.60
2019-02-15T03:05:57.149Z,-0.60
2019-02-15T03:08:25.704Z,-0.40
2019-02-15T03:10:54.691Z,-0.50
2019-02-15T03:13:23.247Z,-0.50
2019-02-15T03:15:51.818Z,-0.50
2019-02-15T03:18:20.401Z,-0.40
2019-02-15T03:20:49.020Z,-0.20
2019-02-15T03:23:17.564Z,0.00
2019-02-15T03:25:46.285Z,0.00
2019-02-15T03:28:14.838Z,-0.20
2019-02-15T03:30:43.406Z,-0.40
2019-02-15T03:33:12.151Z,-0.40
2019-02-15T03:35:42.348Z,-0.50
2019-02-15T03:38:12.548Z,-0.40
2019-02-15T03:40:41.208Z,-0.50
2019-02-15T03:43:09.763Z,-0.40
2019-02-15T03:45:38.362Z,-0.40
2019-02-15T03:48:06.973Z,-0.40
2019-02-15T03:50:35.481Z,-0.30
2019-02-15T03:53:04.057Z,-0.20
2019-02-15T03:55:32.773Z,-0.10
2019-02-15T03:58:01.401Z,-0.20
2019-02-15T04:00:30.024Z,-0.40
2019-02-15T04:02:58.935Z,-0.50
2019-02-15T04:05:27.496Z,-0.60
2019-02-15T04:07:56.048Z,-0.60
2019-02-15T04:10:24.716Z,-0.70
2019-02-15T04:12:53.347Z,-0.50
2019-02-15T04:15:21.988Z,-0.30
2019-02-15T04:17:50.577Z,-0.30
2019-02-15T04:20:19.192Z,-0.20
2019-02-15T04:22:47.748Z,-0.20
2019-02-15T04:25:16.477Z,-0.20
2019-02-15T04:27:45.104Z,-0.30
2019-02-15T04:30:13.720Z,-0.40
2019-02-15T04:32:42.539Z,-0.60
2019-02-15T04:35:11.192Z,-0.70
2019-02-15T04:37:39.760Z,-0.60
2019-02-15T04:40:10.121Z,-0.70
2019-02-15T04:42:38.771Z,-0.70
2019-02-15T04:45:08.454Z,-0.70
2019-02-15T04:47:37.049Z,-0.80
2019-02-15T04:50:08.217Z,-0.90
2019-02-15T04:52:36.777Z,-0.90
2019-02-15T04:55:06.929Z,-0.90
2019-02-15T04:57:35.505Z,-1.00
2019-02-15T05:00:05.329Z,-1.00
2019-02-15T05:02:34.146Z,-1.10
2019-02-15T05:05:02.807Z,-1.10
2019-02-15T05:07:31.336Z,-1.10
2019-02-15T05:09:59.916Z,-1.20
2019-02-15T05:12:28.557Z,-1.20
2019-02-15T05:14:57.106Z,-1.20
2019-02-15T05:17:25.692Z,-1.10
2019-02-15T05:19:54.256Z,-1.10
2019-02-15T05:22:22.874Z,-1.10
2019-02-15T05:24:51.462Z,-1.10
2019-02-15T05:27:20.028Z,-1.20
2019-02-15T05:29:48.585Z,-1.20
2019-02-15T05:32:17.165Z,-1.30
2019-02-15T05:34:45.719Z,-1.30
2019-02-15T05:37:14.275Z,-1.20
2019-02-15T05:39:42.849Z,-1.20
2019-02-15T05:42:11.406Z,-1.20
2019-02-15T05:44:39.971Z,-1.20
2019-02-15T05:47:08.680Z,-1.20
2019-02-15T05:49:37.235Z,-1.20
2019-02-15T05:52:05.792Z,-1.30
2019-02-15T05:54:34.389Z,-1.30
2019-02-15T05:57:02.936Z,-1.30
2019-02-15T05:59:31.573Z,-1.30
2019-02-15T06:02:00.172Z,-1.40
2019-02-15T06:04:28.719Z,-1.40
2019-02-15T06:06:57.275Z,-1.50
2019-02-15T06:09:25.871Z,-1.50
2019-02-15T06:11:54.421Z,-1.30
2019-02-15T06:14:23.079Z,-1.40
2019-02-15T06:16:51.785Z,-1.50
2019-02-15T06:19:20.428Z,-1.40
2019-02-15T06:21:49.007Z,-1.50
2019-02-15T06:24:17.744Z,-1.50
2019-02-15T06:26:46.302Z,-1.50
2019-02-15T06:29:14.877Z,-1.40
2019-02-15T06:31:43.463Z,-1.50
2019-02-15T06:34:12.103Z,-1.40
2019-02-15T06:36:40.702Z,-1.40
2019-02-15T06:39:09.433Z,-1.40
2019-02-15T06:41:37.990Z,-1.40
2019-02-15T06:44:06.641Z,-1.40
2019-02-15T06:46:35.302Z,-1.40
2019-02-15T06:49:03.855Z,-1.40
2019-02-15T06:51:32.525Z,-1.40
2019-02-15T06:54:01.121Z,-1.20
2019-02-15T06:56:29.667Z,-1.00
2019-02-15T06:59:12.233Z,-0.90
2019-02-15T07:01:42.430Z,-0.90
2019-02-15T07:04:12.630Z,-0.90
2019-02-15T07:06:41.209Z,-0.80
2019-02-15T07:09:09.768Z,-0.70
2019-02-15T07:11:38.319Z,-0.60
2019-02-15T07:14:06.924Z,-0.40
2019-02-15T07:16:35.476Z,0.20
2019-02-15T07:19:04.032Z,0.90
2019-02-15T07:21:32.773Z,1.70
2019-02-15T07:24:01.328Z,2.30
2019-02-15T07:26:29.874Z,2.20
2019-02-15T07:28:58.457Z,1.90
2019-02-15T07:31:27.008Z,1.60
2019-02-15T07:33:55.564Z,1.30
2019-02-15T07:36:24.148Z,1.20
2019-02-15T07:38:52.764Z,1.00
2019-02-15T07:41:21.333Z,0.90
2019-02-15T07:43:49.919Z,0.80
2019-02-15T07:46:18.472Z,0.80
2019-02-15T07:48:47.024Z,0.90
2019-02-15T07:51:15.829Z,0.90
2019-02-15T07:53:44.444Z,0.90
2019-02-15T07:56:13.068Z,1.00
2019-02-15T07:58:41.652Z,1.10
2019-02-15T08:01:10.200Z,1.20
2019-02-15T08:03:38.752Z,1.40
2019-02-15T08:06:07.362Z,1.50
2019-02-15T08:08:35.922Z,1.50
2019-02-15T08:11:04.471Z,1.60
2019-02-15T08:13:33.148Z,1.70
2019-02-15T08:16:02.916Z,1.90
2019-02-15T08:18:31.630Z,2.10
2019-02-15T08:21:00.674Z,2.30
2019-02-15T08:23:29.195Z,3.00
2019-02-15T08:25:57.821Z,4.50
2019-02-15T08:28:26.684Z,6.00
2019-02-15T08:30:55.231Z,7.10
2019-02-15T08:33:23.784Z,8.50
2019-02-15T08:35:52.428Z,9.70
2019-02-15T08:38:20.993Z,10.60
2019-02-15T08:40:49.554Z,11.30
2019-02-15T08:43:18.205Z,12.60
2019-02-15T08:45:46.760Z,12.50
2019-02-15T08:48:15.435Z,12.60
2019-02-15T08:50:43.995Z,13.10
2019-02-15T08:53:12.615Z,13.20
2019-02-15T08:55:41.200Z,12.90
2019-02-15T08:58:11.325Z,12.90
2019-02-15T09:00:40.263Z,13.10
2019-02-15T09:03:08.844Z,13.00
2019-02-15T09:05:37.413Z,13.20
2019-02-15T09:08:05.995Z,13.80
2019-02-15T09:10:34.556Z,14.00
2019-02-15T09:13:03.425Z,14.30
2019-02-15T09:15:31.988Z,14.60
2019-02-15T09:18:00.533Z,15.10
2019-02-15T09:20:29.184Z,14.30
2019-02-15T09:22:57.750Z,14.40
2019-02-15T09:25:26.441Z,14.50
2019-02-15T09:28:12.980Z,14.60
2019-02-15T09:30:41.733Z,14.20
2019-02-15T09:33:10.366Z,14.50
2019-02-15T09:35:38.925Z,15.50
2019-02-15T09:38:07.584Z,16.40
2019-02-15T09:40:36.152Z,16.80
2019-02-15T09:43:05.017Z,17.10
2019-02-15T09:45:33.721Z,17.40
2019-02-15T09:48:02.346Z,18.10
2019-02-15T09:50:30.933Z,18.10
2019-02-15T09:52:59.562Z,17.90
2019-02-15T09:55:28.158Z,18.00
2019-02-15T09:57:56.709Z,18.10
2019-02-15T10:00:25.273Z,18.60
2019-02-15T10:02:53.869Z,18.50
2019-02-15T10:05:22.492Z,18.30
2019-02-15T10:07:51.093Z,17.80
2019-02-15T10:10:19.651Z,17.70
2019-02-15T10:12:48.265Z,18.30
2019-02-15T10:15:16.854Z,18.50
2019-02-15T10:17:45.416Z,18.90
2019-02-15T10:20:14.131Z,19.40
2019-02-15T10:22:42.906Z,19.30
2019-02-15T10:25:11.591Z,19.70
2019-02-15T10:27:40.160Z,19.40
2019-02-15T10:30:11.193Z,19.30
2019-02-15T10:32:39.757Z,19.60
2019-02-15T10:35:10.456Z,20.30
2019-02-15T10:37:39.173Z,20.90
2019-02-15T10:40:10.142Z,20.50
2019-02-15T10:42:38.768Z,19.20
2019-02-15T10:45:12.943Z,19.30
2019-02-15T10:47:41.579Z,19.70
2019-02-15T10:50:11.271Z,20.00
2019-02-15T10:52:39.943Z,20.30
2019-02-15T10:55:09.442Z,21.10
2019-02-15T10:57:38.068Z,20.00
2019-02-15T11:00:14.316Z,20.50
2019-02-15T11:02:42.880Z,21.20
2019-02-15T11:05:11.643Z,21.70
2019-02-15T11:07:40.237Z,21.70
2019-02-15T11:10:09.728Z,21.30
2019-02-15T11:12:38.348Z,21.10
2019-02-15T11:15:15.747Z,20.80
2019-02-15T11:17:44.384Z,21.20
2019-02-15T11:20:15.549Z,20.90
2019-02-15T11:22:44.103Z,20.70
2019-02-15T11:25:13.095Z,20.70
2019-02-15T11:27:41.884Z,20.90
2019-02-15T11:30:12.883Z,21.00
2019-02-15T11:32:41.432Z,22.20
2019-02-15T11:35:12.438Z,22.70
2019-02-15T11:37:41.071Z,23.00
2019-02-15T11:40:11.978Z,24.00
2019-02-15T11:42:40.572Z,23.90
2019-02-15T11:45:13.292Z,23.60
2019-02-15T11:47:41.852Z,23.60
2019-02-15T11:50:12.381Z,23.70
2019-02-15T11:52:41.071Z,23.70
2019-02-15T11:55:11.005Z,24.20
2019-02-15T11:57:39.624Z,25.30
2019-02-15T12:00:14.999Z,23.90
2019-02-15T12:02:43.754Z,23.00
2019-02-15T12:05:12.476Z,24.20
2019-02-15T12:07:41.420Z,24.30
2019-02-15T12:10:11.217Z,24.40
2019-02-15T12:12:39.957Z,23.30
2019-02-15T12:15:11.504Z,23.30
2019-02-15T12:17:40.197Z,23.70
2019-02-15T12:20:13.501Z,23.00
2019-02-15T12:22:42.129Z,23.50
2019-02-15T12:25:10.820Z,23.30
2019-02-15T12:27:39.504Z,23.00
2019-02-15T12:30:13.051Z,23.40
2019-02-15T12:32:41.673Z,23.90
2019-02-15T12:35:11.004Z,23.90
2019-02-15T12:37:39.630Z,24.40
2019-02-15T12:40:10.727Z,24.00
2019-02-15T12:42:39.424Z,23.70
2019-02-15T12:45:13.378Z,23.70
2019-02-15T12:47:42.034Z,23.70
2019-02-15T12:50:18.639Z,23.20
2019-02-15T12:52:47.263Z,22.80
2019-02-15T12:55:15.884Z,23.00
2019-02-15T12:57:44.682Z,22.70
2019-02-15T13:00:15.348Z,22.10
2019-02-15T13:02:44.042Z,22.10
2019-02-15T13:05:14.255Z,22.30
2019-02-15T13:07:42.811Z,22.50
2019-02-15T13:10:16.962Z,22.60
2019-02-15T13:12:45.784Z,22.80
2019-02-15T13:15:14.581Z,22.80
2019-02-15T13:17:43.175Z,22.30
2019-02-15T13:20:11.973Z,22.40
2019-02-15T13:22:40.585Z,22.50
2019-02-15T13:25:09.407Z,22.60
2019-02-15T13:27:38.207Z,22.50
2019-02-15T13:30:09.870Z,23.00
2019-02-15T13:32:38.452Z,22.90
2019-02-15T13:35:09.955Z,23.50
2019-02-15T13:37:38.610Z,23.80
2019-02-15T13:40:08.997Z,23.90
2019-02-15T13:42:37.975Z,24.50
2019-02-15T13:45:11.672Z,24.40
2019-02-15T13:47:40.299Z,24.30
2019-02-15T13:50:14.221Z,24.60
2019-02-15T13:52:42.885Z,24.70
2019-02-15T13:55:11.633Z,24.90
2019-02-15T13:57:40.357Z,24.10
2019-02-15T14:00:11.817Z,24.10
2019-02-15T14:02:40.511Z,23.80
2019-02-15T14:05:10.827Z,24.60
2019-02-15T14:07:39.505Z,24.40
2019-02-15T14:10:12.850Z,23.90
2019-02-15T14:12:41.471Z,23.70
2019-02-15T14:15:13.192Z,22.70
2019-02-15T14:17:45.460Z,21.90
2019-02-15T14:20:14.409Z,21.50
2019-02-15T14:22:43.033Z,20.90
2019-02-15T14:25:13.238Z,20.80
2019-02-15T14:27:41.929Z,20.00
2019-02-15T14:30:14.201Z,20.20
2019-02-15T14:32:43.109Z,19.60
2019-02-15T14:35:14.275Z,18.90
2019-02-15T14:37:42.983Z,18.90
2019-02-15T14:40:12.669Z,19.00
2019-02-15T14:42:41.286Z,18.40
2019-02-15T14:45:12.246Z,18.30
2019-02-15T14:47:41.308Z,18.10
2019-02-15T14:50:10.999Z,18.00
2019-02-15T14:52:39.681Z,17.50
2019-02-15T14:55:09.812Z,17.50
2019-02-15T14:57:38.523Z,17.50
2019-02-15T15:00:10.219Z,17.30
2019-02-15T15:02:38.813Z,17.20
2019-02-15T15:05:08.494Z,17.10
2019-02-15T15:07:37.667Z,17.00
2019-02-15T15:10:08.666Z,16.80
2019-02-15T15:12:37.214Z,16.60
2019-02-15T15:15:11.799Z,16.50
2019-02-15T15:17:40.454Z,16.60
2019-02-15T15:20:11.252Z,16.30
2019-02-15T15:22:39.804Z,16.30
2019-02-15T15:25:13.162Z,16.30
2019-02-15T15:27:41.972Z,16.40
2019-02-15T15:30:12.736Z,16.20
2019-02-15T15:32:41.352Z,16.20
2019-02-15T15:35:11.585Z,16.30
2019-02-15T15:37:40.210Z,16.40
2019-02-15T15:40:19.247Z,16.40
2019-02-15T15:42:47.948Z,16.50
2019-02-15T15:45:16.567Z,16.60
2019-02-15T15:47:45.657Z,16.70
2019-02-15T15:50:14.667Z,16.60
2019-02-15T15:52:43.248Z,16.10
2019-02-15T15:55:13.388Z,15.70
2019-02-15T15:57:42.007Z,15.30
2019-02-15T16:00:13.196Z,14.90
2019-02-15T16:02:41.987Z,14.20
2019-02-15T16:05:12.240Z,14.20
2019-02-15T16:07:43.258Z,13.90
2019-02-15T16:10:13.007Z,13.50
2019-02-15T16:12:41.628Z,13.10
2019-02-15T16:15:12.492Z,12.80
2019-02-15T16:17:41.146Z,12.60
2019-02-15T16:20:13.662Z,12.30
2019-02-15T16:22:42.282Z,12.10
2019-02-15T16:25:11.489Z,11.90
2019-02-15T16:27:40.180Z,11.70
2019-02-15T16:30:11.732Z,11.40
2019-02-15T16:32:40.557Z,11.10
2019-02-15T16:35:09.544Z,11.00
2019-02-15T16:37:38.248Z,10.80
2019-02-15T16:40:11.774Z,10.60
2019-02-15T16:42:40.575Z,10.20
2019-02-15T16:45:13.996Z,10.20
2019-02-15T16:47:42.724Z,10.00
2019-02-15T16:50:11.608Z,9.90
2019-02-15T16:52:40.177Z,9.50
2019-02-15T16:55:12.754Z,9.50
2019-02-15T16:57:39.952Z,9.40
2019-02-15T17:00:11.236Z,9.30
2019-02-15T17:02:39.888Z,9.20
2019-02-15T17:05:08.644Z,9.10
2019-02-15T17:07:37.264Z,9.00
2019-02-15T17:10:08.500Z,8.90
2019-02-15T17:12:37.116Z,8.80
2019-02-15T17:15:08.817Z,8.60
2019-02-15T17:17:37.476Z,8.50
2019-02-15T17:20:08.363Z,8.40
2019-02-15T17:22:37.109Z,8.40
2019-02-15T17:25:08.786Z,8.30
2019-02-15T17:27:37.350Z,8.20
2019-02-15T17:30:10.519Z,8.20
2019-02-15T17:32:39.243Z,8.10
2019-02-15T17:35:09.931Z,8.10
2019-02-15T17:37:38.628Z,8.00
2019-02-15T17:40:15.721Z,7.90
2019-02-15T17:42:44.342Z,7.90
2019-02-15T17:45:13.229Z,7.80
2019-02-15T17:47:41.884Z,7.70
2019-02-15T17:50:11.684Z,7.70
2019-02-15T17:52:40.364Z,7.50
2019-02-15T17:55:10.281Z,7.50
2019-02-15T17:57:38.964Z,7.50
2019-02-15T18:00:16.332Z,7.50
2019-02-15T18:02:44.885Z,7.40
2019-02-15T18:05:18.977Z,7.50
2019-02-15T18:07:50.191Z,7.50
2019-02-15T18:10:18.759Z,7.40
2019-02-15T18:12:47.360Z,7.40
2019-02-15T18:15:16.076Z,7.40
2019-02-15T18:17:44.697Z,7.40
2019-02-15T18:20:13.382Z,7.50
2019-02-15T18:22:42.041Z,7.40
2019-02-15T18:25:10.728Z,7.40
2019-02-15T18:27:39.348Z,7.40
2019-02-15T18:30:14.071Z,7.40
2019-02-15T18:32:42.697Z,7.40
2019-02-15T18:35:11.313Z,7.30
2019-02-15T18:37:39.964Z,7.40
2019-02-15T18:40:10.254Z,7.40
2019-02-15T18:42:38.888Z,7.40
2019-02-15T18:45:10.745Z,7.40
2019-02-15T18:47:39.292Z,7.40
2019-02-15T18:50:09.589Z,7.30
2019-02-15T18:52:38.282Z,7.30
2019-02-15T18:55:11.659Z,7.30
2019-02-15T18:57:40.199Z,7.30
2019-02-15T19:00:16.147Z,7.20
2019-02-15T19:02:47.809Z,7.10
2019-02-15T19:05:16.416Z,6.90
2019-02-15T19:07:45.423Z,6.80
2019-02-15T19:10:16.779Z,6.70
2019-02-15T19:12:45.469Z,6.70
2019-02-15T19:15:16.428Z,6.50
2019-02-15T19:17:45.052Z,6.40
2019-02-15T19:20:17.217Z,6.30
2019-02-15T19:22:46.039Z,6.30
2019-02-15T19:25:16.538Z,6.40
2019-02-15T19:27:45.076Z,6.40
2019-02-15T19:30:22.458Z,6.30
2019-02-15T19:32:51.008Z,6.20
2019-02-15T19:35:19.629Z,6.20
2019-02-15T19:37:48.235Z,6.20
2019-02-15T19:40:19.123Z,6.20
2019-02-15T19:42:49.532Z,6.20
2019-02-15T19:45:18.349Z,6.20
2019-02-15T19:47:47.116Z,6.30
2019-02-15T19:50:17.595Z,6.20
2019-02-15T19:52:48.116Z,6.20
2019-02-15T19:55:16.802Z,6.20
2019-02-15T19:57:45.495Z,6.00
2019-02-15T20:00:19.249Z,6.20
2019-02-15T20:02:48.048Z,6.10
2019-02-15T20:05:16.606Z,6.20
2019-02-15T20:07:45.266Z,6.20
2019-02-15T20:10:19.622Z,6.20
2019-02-15T20:12:48.172Z,6.10
2019-02-15T20:15:17.070Z,6.10
2019-02-15T20:17:45.694Z,6.10
2019-02-15T20:20:15.776Z,6.00
2019-02-15T20:22:44.368Z,6.00
2019-02-15T20:25:13.666Z,6.00
2019-02-15T20:27:42.463Z,6.00
2019-02-15T20:30:17.203Z,5.90
2019-02-15T20:32:45.824Z,5.80
2019-02-15T20:35:14.384Z,5.70
2019-02-15T20:37:43.107Z,5.70
2019-02-15T20:40:12.693Z,5.80
2019-02-15T20:42:44.753Z,5.60
2019-02-15T20:45:23.596Z,5.60
2019-02-15T20:47:52.153Z,5.50
2019-02-15T20:50:21.031Z,5.50
2019-02-15T20:52:49.618Z,5.50
2019-02-15T20:55:22.047Z,5.40
2019-02-15T20:57:50.588Z,5.30
2019-02-15T21:00:22.010Z,5.20
2019-02-15T21:02:50.705Z,5.20
2019-02-15T21:05:19.391Z,5.30
2019-02-15T21:07:48.177Z,5.20
2019-02-15T21:10:16.736Z,5.20
2019-02-15T21:12:45.300Z,5.30
2019-02-15T21:15:14.993Z,5.20
2019-02-15T21:17:43.688Z,5.20
2019-02-15T21:20:14.358Z,5.20
2019-02-15T21:22:43.497Z,5.00
2019-02-15T21:25:14.750Z,5.00
2019-02-15T21:27:43.443Z,4.80
2019-02-15T21:30:14.916Z,4.70
2019-02-15T21:32:43.617Z,4.50
2019-02-15T21:35:12.405Z,4.30
2019-02-15T21:37:41.123Z,4.10
2019-02-15T21:40:19.512Z,4.00
2019-02-15T21:42:48.656Z,3.90
2019-02-15T21:45:17.280Z,3.70
2019-02-15T21:47:45.903Z,3.60
2019-02-15T21:50:17.524Z,3.50
2019-02-15T21:52:44.950Z,3.50
2019-02-15T21:55:15.345Z,3.40
2019-02-15T21:57:43.926Z,3.30
2019-02-15T22:00:21.212Z,3.20
2019-02-15T22:02:52.823Z,3.20
2019-02-15T22:05:22.927Z,3.10
2019-02-15T22:07:52.135Z,2.20
2019-02-15T22:10:20.769Z,2.90
2019-02-15T22:12:50.978Z,2.90
2019-02-15T22:15:19.678Z,2.80
2019-02-15T22:17:48.276Z,2.80
2019-02-15T22:20:25.916Z,2.80
2019-02-15T22:22:47.768Z,2.80
2019-02-15T22:25:16.575Z,2.80
2019-02-15T22:27:45.194Z,2.80
2019-02-15T22:30:18.368Z,2.80
2019-02-15T22:32:47.293Z,2.70
2019-02-15T22:35:15.835Z,2.60
2019-02-15T22:37:44.462Z,2.70
2019-02-15T22:40:35.616Z,2.60
2019-02-15T22:43:07.308Z,2.70
2019-02-15T22:45:39.400Z,2.60
2019-02-15T22:48:08.100Z,2.60
2019-02-15T22:50:36.770Z,2.50
2019-02-15T22:53:05.391Z,2.50
2019-02-15T22:55:36.496Z,2.50
2019-02-15T22:58:05.068Z,2.40
2019-02-15T23:00:46.580Z,2.40
2019-02-15T23:03:17.801Z,2.30
2019-02-15T23:05:46.515Z,2.30
2019-02-15T23:08:15.216Z,2.30
2019-02-15T23:10:44.019Z,2.30
2019-02-15T23:13:12.568Z,2.20
2019-02-15T23:15:41.217Z,2.20
2019-02-15T23:18:09.772Z,2.10
2019-02-15T23:20:44.838Z,2.00
2019-02-15T23:23:11.833Z,2.10
2019-02-15T23:25:40.395Z,2.10
2019-02-15T23:28:12.521Z,2.00
2019-02-15T23:30:41.209Z,2.00
2019-02-15T23:33:09.764Z,1.90
2019-02-15T23:35:38.512Z,1.80
2019-02-15T23:38:10.345Z,1.80
2019-02-15T23:40:38.960Z,1.90
2019-02-15T23:43:07.586Z,1.80
2019-02-15T23:45:36.166Z,1.80
2019-02-15T23:48:08.074Z,-1.00
2019-02-15T23:50:36.668Z,1.80
2019-02-15T23:53:05.433Z,1.80
2019-02-15T23:55:33.984Z,1.90
2019-02-15T23:58:02.554Z,1.80
